Terminal Aerodrome Forecast
Issued by NWS

Home | Current Version | Previous Version | Text Only | Print | Product List | Glossary On
Versions: 1 2 3 4 5 6 7 8 9 10 11 12 13 14 15 16 17 18 19 20 21
000
FTUS46 KLOX 252346
TAFSBA
TAF
KSBA 252346Z 2600/2624 24008KT P6SM SCT020 BKN120
     FM260300 32008KT P6SM SCT060 BKN100
     FM260800 VRB03KT 5SM -RA BR SCT020 OVC040
     FM261500 12007KT P6SM VCSH SCT030 BKN050
     FM262000 16008KT P6SM BKN050 BKN110=

USA.gov is the U.S. government's official web portal to all federal, state and local government web resources and services.